Uxbridge, Canada
Current Conditions -  °F | °C
As of 10:00 AM on Thursday 23 Oct 2014 (Local Time) from CYKZ Reporting Station
Clear Clear  
Wind Chill: 50°   Ceiling: Unl
Heat Index: 50°   Visibility: 15mi
Dew Point: 41°   Wind: 8mph
Humidity: 71%   Direction: 360°N
Pressure: 30.17"   Gusts: NA
Location:  44.1°N, 79.12°W
Report Text: CYKZ 231400Z 36007KT 15SM SKC 10/05 A3017 RMK SLP220
Loading
Personal Weather Stations






























Interactive Weather Map
Tropical Storm Tracking
New forecast layout! Learn more

10-Day Weather Forecast

Advertisements
Track Severe Weather on mobile